sensor_id;sensor_type;location;lat;lon;timestamp;pressure;altitude;pressure_sealevel;temperature;humidity
21988;BME280;11158;53.404;-1.510;2023-02-12T00:00:36;102660.16;;;14.34;44.39
21988;BME280;11158;53.404;-1.510;2023-02-12T00:03:02;102651.16;;;14.61;43.55
21988;BME280;11158;53.404;-1.510;2023-02-12T00:05:28;102656.13;;;14.56;43.66
21988;BME280;11158;53.404;-1.510;2023-02-12T00:07:54;102655.47;;;14.36;44.15
21988;BME280;11158;53.404;-1.510;2023-02-12T00:10:19;102648.50;;;14.52;44.10
21988;BME280;11158;53.404;-1.510;2023-02-12T00:12:45;102649.22;;;14.36;44.09
21988;BME280;11158;53.404;-1.510;2023-02-12T00:15:11;102653.53;;;14.64;43.79
21988;BME280;11158;53.404;-1.510;2023-02-12T00:17:36;102668.94;;;14.09;45.14
21988;BME280;11158;53.404;-1.510;2023-02-12T00:20:02;102656.91;;;14.31;44.59
21988;BME280;11158;53.404;-1.510;2023-02-12T00:22:28;102644.97;;;14.69;43.82
21988;BME280;11158;53.404;-1.510;2023-02-12T00:24:54;102643.88;;;14.80;43.65
21988;BME280;11158;53.404;-1.510;2023-02-12T00:27:20;102629.56;;;15.05;43.19
21988;BME280;11158;53.404;-1.510;2023-02-12T00:29:46;102638.22;;;15.17;42.84
21988;BME280;11158;53.404;-1.510;2023-02-12T00:32:11;102639.09;;;15.26;42.65
21988;BME280;11158;53.404;-1.510;2023-02-12T00:34:39;102637.66;;;15.14;42.59
21988;BME280;11158;53.404;-1.510;2023-02-12T00:37:05;102642.84;;;14.55;43.91
21988;BME280;11158;53.404;-1.510;2023-02-12T00:39:31;102635.59;;;14.01;45.35
21988;BME280;11158;53.404;-1.510;2023-02-12T00:41:56;102633.28;;;13.71;46.23
21988;BME280;11158;53.404;-1.510;2023-02-12T00:44:22;102622.31;;;13.82;46.02
21988;BME280;11158;53.404;-1.510;2023-02-12T00:46:47;102629.06;;;14.04;45.53
21988;BME280;11158;53.404;-1.510;2023-02-12T00:49:13;102631.66;;;13.78;46.05
21988;BME280;11158;53.404;-1.510;2023-02-12T00:51:39;102637.44;;;13.83;46.12
21988;BME280;11158;53.404;-1.510;2023-02-12T00:54:05;102627.22;;;14.40;44.97
21988;BME280;11158;53.404;-1.510;2023-02-12T00:56:30;102622.06;;;14.65;44.18
21988;BME280;11158;53.404;-1.510;2023-02-12T00:58:56;102608.88;;;14.80;43.96
21988;BME280;11158;53.404;-1.510;2023-02-12T01:01:21;102618.38;;;14.66;44.28
21988;BME280;11158;53.404;-1.510;2023-02-12T01:03:47;102622.72;;;14.23;45.38
21988;BME280;11158;53.404;-1.510;2023-02-12T01:06:13;102622.22;;;13.09;47.95
21988;BME280;11158;53.404;-1.510;2023-02-12T01:08:38;102618.16;;;13.42;47.34
21988;BME280;11158;53.404;-1.510;2023-02-12T01:11:04;102619.13;;;13.69;46.62
21988;BME280;11158;53.404;-1.510;2023-02-12T01:13:31;102628.81;;;13.61;46.85
21988;BME280;11158;53.404;-1.510;2023-02-12T01:16:07;102632.47;;;13.60;47.30
21988;BME280;11158;53.404;-1.510;2023-02-12T01:18:36;102630.69;;;13.79;46.33
21988;BME280;11158;53.404;-1.510;2023-02-12T01:21:08;102636.47;;;14.02;46.03
21988;BME280;11158;53.404;-1.510;2023-02-12T01:23:34;102625.31;;;14.15;45.55
21988;BME280;11158;53.404;-1.510;2023-02-12T01:26:00;102621.16;;;14.56;44.62
21988;BME280;11158;53.404;-1.510;2023-02-12T01:28:25;102621.38;;;14.63;44.39
21988;BME280;11158;53.404;-1.510;2023-02-12T01:30:51;102630.59;;;14.86;43.97
21988;BME280;11158;53.404;-1.510;2023-02-12T01:33:16;102622.25;;;14.28;45.13
21988;BME280;11158;53.404;-1.510;2023-02-12T01:35:42;102622.38;;;13.90;46.29
21988;BME280;11158;53.404;-1.510;2023-02-12T01:38:08;102626.47;;;13.94;46.02
21988;BME280;11158;53.404;-1.510;2023-02-12T01:40:33;102627.31;;;13.95;46.03
21988;BME280;11158;53.404;-1.510;2023-02-12T01:43:00;102627.47;;;13.93;45.56
21988;BME280;11158;53.404;-1.510;2023-02-12T01:48:01;102611.25;;;14.57;44.30
21988;BME280;11158;53.404;-1.510;2023-02-12T01:50:26;102618.31;;;14.40;44.34
21988;BME280;11158;53.404;-1.510;2023-02-12T01:52:55;102630.50;;;13.80;45.79
21988;BME280;11158;53.404;-1.510;2023-02-12T01:55:22;102627.97;;;13.61;46.43
21988;BME280;11158;53.404;-1.510;2023-02-12T01:57:49;102626.56;;;13.57;46.60
21988;BME280;11158;53.404;-1.510;2023-02-12T02:00:19;102623.28;;;13.35;46.75
21988;BME280;11158;53.404;-1.510;2023-02-12T02:02:48;102622.16;;;13.38;46.97
21988;BME280;11158;53.404;-1.510;2023-02-12T02:05:19;102623.09;;;14.10;46.17
21988;BME280;11158;53.404;-1.510;2023-02-12T02:07:47;102613.94;;;14.21;44.70
21988;BME280;11158;53.404;-1.510;2023-02-12T02:10:13;102624.78;;;13.93;45.57
21988;BME280;11158;53.404;-1.510;2023-02-12T02:12:39;102627.78;;;14.26;45.32
21988;BME280;11158;53.404;-1.510;2023-02-12T02:15:25;102628.94;;;14.59;44.62
21988;BME280;11158;53.404;-1.510;2023-02-12T02:18:01;102623.59;;;14.68;44.20
21988;BME280;11158;53.404;-1.510;2023-02-12T02:20:48;102630.22;;;14.73;43.97
21988;BME280;11158;53.404;-1.510;2023-02-12T02:29:09;102632.34;;;14.52;44.47
21988;BME280;11158;53.404;-1.510;2023-02-12T02:31:56;102629.16;;;14.12;45.08
21988;BME280;11158;53.404;-1.510;2023-02-12T02:34:40;102632.28;;;13.44;46.59
21988;BME280;11158;53.404;-1.510;2023-02-12T02:37:25;102629.50;;;13.36;47.23
21988;BME280;11158;53.404;-1.510;2023-02-12T02:40:12;102633.53;;;12.55;49.43
21988;BME280;11158;53.404;-1.510;2023-02-12T02:45:12;102619.06;;;13.23;48.08
21988;BME280;11158;53.404;-1.510;2023-02-12T02:47:57;102621.69;;;13.43;47.96
21988;BME280;11158;53.404;-1.510;2023-02-12T02:50:26;102621.38;;;13.73;46.88
21988;BME280;11158;53.404;-1.510;2023-02-12T02:53:05;102612.88;;;13.96;46.25
21988;BME280;11158;53.404;-1.510;2023-02-12T02:55:40;102620.03;;;13.59;46.81
21988;BME280;11158;53.404;-1.510;2023-02-12T02:58:12;102615.19;;;13.45;47.52
21988;BME280;11158;53.404;-1.510;2023-02-12T03:00:52;102607.13;;;13.91;46.49
21988;BME280;11158;53.404;-1.510;2023-02-12T03:03:26;102614.56;;;14.15;45.68
21988;BME280;11158;53.404;-1.510;2023-02-12T03:05:58;102620.25;;;14.12;45.43
21988;BME280;11158;53.404;-1.510;2023-02-12T03:08:31;102613.25;;;14.19;45.75
21988;BME280;11158;53.404;-1.510;2023-02-12T03:11:08;102626.63;;;13.00;48.33
21988;BME280;11158;53.404;-1.510;2023-02-12T03:13:40;102625.63;;;13.48;47.24
21988;BME280;11158;53.404;-1.510;2023-02-12T03:16:20;102621.28;;;13.00;47.82
21988;BME280;11158;53.404;-1.510;2023-02-12T03:19:03;102622.53;;;12.96;48.16
21988;BME280;11158;53.404;-1.510;2023-02-12T03:22:15;102625.72;;;13.19;47.97
21988;BME280;11158;53.404;-1.510;2023-02-12T03:24:47;102615.31;;;13.71;46.68
21988;BME280;11158;53.404;-1.510;2023-02-12T03:27:32;102606.75;;;13.58;46.78
21988;BME280;11158;53.404;-1.510;2023-02-12T03:29:59;102615.69;;;13.76;46.00
21988;BME280;11158;53.404;-1.510;2023-02-12T03:35:28;102609.81;;;13.45;45.61
21988;BME280;11158;53.404;-1.510;2023-02-12T03:38:25;102617.38;;;13.22;47.26
21988;BME280;11158;53.404;-1.510;2023-02-12T03:41:05;102619.72;;;12.97;47.97
21988;BME280;11158;53.404;-1.510;2023-02-12T03:43:47;102618.72;;;13.46;46.72
21988;BME280;11158;53.404;-1.510;2023-02-12T03:48:51;102611.25;;;13.85;45.62
21988;BME280;11158;53.404;-1.510;2023-02-12T03:51:28;102617.47;;;13.86;45.41
21988;BME280;11158;53.404;-1.510;2023-02-12T03:53:57;102620.78;;;13.14;47.10
21988;BME280;11158;53.404;-1.510;2023-02-12T03:56:47;102616.13;;;13.54;46.93
21988;BME280;11158;53.404;-1.510;2023-02-12T03:59:18;102616.63;;;13.85;45.81
21988;BME280;11158;53.404;-1.510;2023-02-12T04:01:44;102606.25;;;13.90;45.50
21988;BME280;11158;53.404;-1.510;2023-02-12T04:04:10;102612.47;;;14.09;44.91
21988;BME280;11158;53.404;-1.510;2023-02-12T04:06:36;102613.72;;;14.32;44.53
21988;BME280;11158;53.404;-1.510;2023-02-12T04:09:06;102614.94;;;14.20;43.86
21988;BME280;11158;53.404;-1.510;2023-02-12T04:23:29;102624.78;;;14.11;44.18
21988;BME280;11158;53.404;-1.510;2023-02-12T04:36:30;102630.69;;;13.14;45.68
21988;BME280;11158;53.404;-1.510;2023-02-12T04:39:02;102636.91;;;13.14;46.33
21988;BME280;11158;53.404;-1.510;2023-02-12T04:41:30;102626.63;;;13.47;46.03
21988;BME280;11158;53.404;-1.510;2023-02-12T04:43:55;102630.91;;;13.86;44.96
21988;BME280;11158;53.404;-1.510;2023-02-12T04:46:21;102636.53;;;13.92;44.55
21988;BME280;11158;53.404;-1.510;2023-02-12T04:48:55;102633.69;;;13.94;44.92
21988;BME280;11158;53.404;-1.510;2023-02-12T04:51:21;102619.84;;;14.24;44.07
21988;BME280;11158;53.404;-1.510;2023-02-12T04:53:47;102632.78;;;14.21;44.13
21988;BME280;11158;53.404;-1.510;2023-02-12T04:56:13;102625.63;;;14.30;43.85
21988;BME280;11158;53.404;-1.510;2023-02-12T04:58:39;102627.16;;;14.32;43.84
21988;BME280;11158;53.404;-1.510;2023-02-12T05:01:06;102636.72;;;13.26;46.58
21988;BME280;11158;53.404;-1.510;2023-02-12T05:03:31;102635.97;;;13.71;45.60
21988;BME280;11158;53.404;-1.510;2023-02-12T05:06:05;102627.00;;;13.80;44.98
21988;BME280;11158;53.404;-1.510;2023-02-12T05:08:31;102634.41;;;14.14;44.56
21988;BME280;11158;53.404;-1.510;2023-02-12T05:10:56;102632.16;;;14.09;44.58
21988;BME280;11158;53.404;-1.510;2023-02-12T05:13:22;102639.47;;;14.17;44.33
21988;BME280;11158;53.404;-1.510;2023-02-12T05:15:47;102633.94;;;14.36;44.20
21988;BME280;11158;53.404;-1.510;2023-02-12T05:18:13;102626.75;;;14.45;43.66
21988;BME280;11158;53.404;-1.510;2023-02-12T05:20:38;102632.44;;;14.42;43.46
21988;BME280;11158;53.404;-1.510;2023-02-12T05:23:04;102624.72;;;14.03;44.71
21988;BME280;11158;53.404;-1.510;2023-02-12T05:25:29;102616.78;;;14.01;44.30
21988;BME280;11158;53.404;-1.510;2023-02-12T05:27:56;102621.41;;;14.27;43.93
21988;BME280;11158;53.404;-1.510;2023-02-12T05:30:22;102614.94;;;14.20;44.30
21988;BME280;11158;53.404;-1.510;2023-02-12T05:32:47;102617.84;;;14.27;43.94
21988;BME280;11158;53.404;-1.510;2023-02-12T05:35:13;102617.00;;;14.44;43.47
21988;BME280;11158;53.404;-1.510;2023-02-12T05:37:39;102610.81;;;14.52;43.02
21988;BME280;11158;53.404;-1.510;2023-02-12T05:40:05;102606.56;;;14.41;43.12
21988;BME280;11158;53.404;-1.510;2023-02-12T05:42:31;102604.19;;;13.38;45.50
21988;BME280;11158;53.404;-1.510;2023-02-12T05:44:57;102609.88;;;13.99;44.45
21988;BME280;11158;53.404;-1.510;2023-02-12T05:47:22;102610.72;;;13.99;44.18
21988;BME280;11158;53.404;-1.510;2023-02-12T05:49:48;102603.19;;;13.85;44.71
21988;BME280;11158;53.404;-1.510;2023-02-12T05:52:13;102606.44;;;14.07;44.58
21988;BME280;11158;53.404;-1.510;2023-02-12T05:54:39;102605.88;;;14.39;43.70
21988;BME280;11158;53.404;-1.510;2023-02-12T05:57:05;102609.41;;;14.03;44.55
21988;BME280;11158;53.404;-1.510;2023-02-12T05:59:31;102618.41;;;13.11;46.64
21988;BME280;11158;53.404;-1.510;2023-02-12T06:01:58;102615.03;;;12.33;48.57
21988;BME280;11158;53.404;-1.510;2023-02-12T06:04:28;102620.53;;;12.51;48.20
21988;BME280;11158;53.404;-1.510;2023-02-12T06:06:54;102619.03;;;12.95;47.38
21988;BME280;11158;53.404;-1.510;2023-02-12T06:09:21;102608.00;;;13.26;46.18
21988;BME280;11158;53.404;-1.510;2023-02-12T06:11:46;102610.75;;;13.54;45.31
21988;BME280;11158;53.404;-1.510;2023-02-12T06:14:15;102604.25;;;13.92;44.17
21988;BME280;11158;53.404;-1.510;2023-02-12T06:16:44;102605.78;;;13.95;44.09
21988;BME280;11158;53.404;-1.510;2023-02-12T06:19:10;102605.94;;;14.29;43.61
21988;BME280;11158;53.404;-1.510;2023-02-12T06:21:36;102597.69;;;14.49;42.95
21988;BME280;11158;53.404;-1.510;2023-02-12T06:24:01;102594.41;;;14.37;43.32
21988;BME280;11158;53.404;-1.510;2023-02-12T06:26:27;102598.63;;;14.39;43.20
21988;BME280;11158;53.404;-1.510;2023-02-12T06:28:53;102602.81;;;14.16;43.66
21988;BME280;11158;53.404;-1.510;2023-02-12T06:31:24;102602.63;;;14.17;43.81
21988;BME280;11158;53.404;-1.510;2023-02-12T06:33:51;102609.31;;;14.31;43.74
21988;BME280;11158;53.404;-1.510;2023-02-12T06:36:17;102606.94;;;14.46;43.44
21988;BME280;11158;53.404;-1.510;2023-02-12T06:38:43;102605.56;;;14.60;43.28
21988;BME280;11158;53.404;-1.510;2023-02-12T06:41:09;102606.38;;;14.42;43.45
21988;BME280;11158;53.404;-1.510;2023-02-12T06:43:35;102598.25;;;14.34;43.45
21988;BME280;11158;53.404;-1.510;2023-02-12T06:46:02;102611.72;;;14.34;43.52
21988;BME280;11158;53.404;-1.510;2023-02-12T06:48:28;102613.06;;;14.38;43.60
21988;BME280;11158;53.404;-1.510;2023-02-12T06:50:54;102608.78;;;14.45;43.52
21988;BME280;11158;53.404;-1.510;2023-02-12T06:53:19;102614.34;;;14.52;43.41
21988;BME280;11158;53.404;-1.510;2023-02-12T06:55:45;102612.31;;;14.64;43.01
21988;BME280;11158;53.404;-1.510;2023-02-12T06:58:11;102609.16;;;14.51;43.08
21988;BME280;11158;53.404;-1.510;2023-02-12T07:00:36;102621.78;;;14.32;43.81
21988;BME280;11158;53.404;-1.510;2023-02-12T07:03:02;102624.09;;;14.09;44.27
21988;BME280;11158;53.404;-1.510;2023-02-12T07:05:27;102627.31;;;14.13;44.49
21988;BME280;11158;53.404;-1.510;2023-02-12T07:07:53;102629.75;;;14.06;44.48
21988;BME280;11158;53.404;-1.510;2023-02-12T07:10:19;102635.69;;;14.10;44.74
21988;BME280;11158;53.404;-1.510;2023-02-12T07:12:45;102626.63;;;14.11;44.73
21988;BME280;11158;53.404;-1.510;2023-02-12T07:15:11;102622.47;;;14.16;44.72
21988;BME280;11158;53.404;-1.510;2023-02-12T07:17:36;102629.84;;;14.32;44.25
21988;BME280;11158;53.404;-1.510;2023-02-12T07:20:03;102626.84;;;14.35;44.08
21988;BME280;11158;53.404;-1.510;2023-02-12T07:22:29;102629.09;;;14.58;43.57
21988;BME280;11158;53.404;-1.510;2023-02-12T07:24:54;102639.34;;;13.73;45.26
21988;BME280;11158;53.404;-1.510;2023-02-12T07:27:20;102633.63;;;13.30;46.41
21988;BME280;11158;53.404;-1.510;2023-02-12T07:29:45;102622.91;;;13.76;45.41
21988;BME280;11158;53.404;-1.510;2023-02-12T07:32:11;102628.19;;;14.13;44.76
21988;BME280;11158;53.404;-1.510;2023-02-12T07:34:36;102618.53;;;14.46;44.03
21988;BME280;11158;53.404;-1.510;2023-02-12T07:37:02;102616.47;;;14.58;43.64
21988;BME280;11158;53.404;-1.510;2023-02-12T07:39:27;102622.75;;;14.67;43.34
21988;BME280;11158;53.404;-1.510;2023-02-12T07:41:55;102618.06;;;14.51;43.66
21988;BME280;11158;53.404;-1.510;2023-02-12T07:44:21;102617.72;;;14.28;44.23
21988;BME280;11158;53.404;-1.510;2023-02-12T07:46:47;102628.47;;;14.46;43.59
21988;BME280;11158;53.404;-1.510;2023-02-12T07:49:18;102631.72;;;14.32;43.66
21988;BME280;11158;53.404;-1.510;2023-02-12T07:51:45;102634.41;;;14.32;43.85
21988;BME280;11158;53.404;-1.510;2023-02-12T07:54:12;102637.75;;;14.34;43.53
21988;BME280;11158;53.404;-1.510;2023-02-12T07:56:39;102638.53;;;14.08;44.20
21988;BME280;11158;53.404;-1.510;2023-02-12T07:59:07;102631.06;;;14.38;43.38
21988;BME280;11158;53.404;-1.510;2023-02-12T08:01:37;102636.06;;;14.51;43.01
21988;BME280;11158;53.404;-1.510;2023-02-12T08:04:07;102640.16;;;14.19;43.80
21988;BME280;11158;53.404;-1.510;2023-02-12T08:06:35;102641.28;;;13.98;44.32
21988;BME280;11158;53.404;-1.510;2023-02-12T08:09:04;102641.91;;;13.92;44.75
21988;BME280;11158;53.404;-1.510;2023-02-12T08:11:31;102647.06;;;14.03;44.24
21988;BME280;11158;53.404;-1.510;2023-02-12T08:13:58;102642.97;;;13.99;44.52
21988;BME280;11158;53.404;-1.510;2023-02-12T08:16:26;102661.66;;;14.19;44.15
21988;BME280;11158;53.404;-1.510;2023-02-12T08:18:52;102657.00;;;14.21;44.16
21988;BME280;11158;53.404;-1.510;2023-02-12T08:21:19;102652.66;;;14.10;44.34
21988;BME280;11158;53.404;-1.510;2023-02-12T08:23:46;102659.31;;;14.16;44.17
21988;BME280;11158;53.404;-1.510;2023-02-12T08:26:18;102648.84;;;14.31;43.95
21988;BME280;11158;53.404;-1.510;2023-02-12T08:28:49;102650.97;;;14.63;43.41
21988;BME280;11158;53.404;-1.510;2023-02-12T08:31:21;102653.03;;;14.87;42.94
21988;BME280;11158;53.404;-1.510;2023-02-12T08:33:48;102655.28;;;15.00;42.56
21988;BME280;11158;53.404;-1.510;2023-02-12T08:36:16;102648.56;;;15.04;42.52
21988;BME280;11158;53.404;-1.510;2023-02-12T08:38:43;102642.19;;;15.05;42.52
21988;BME280;11158;53.404;-1.510;2023-02-12T08:41:44;102632.47;;;14.86;42.78
21988;BME280;11158;53.404;-1.510;2023-02-12T08:44:04;102642.63;;;14.66;43.25
21988;BME280;11158;53.404;-1.510;2023-02-12T08:46:38;102640.38;;;14.43;43.55
21988;BME280;11158;53.404;-1.510;2023-02-12T08:49:07;102642.44;;;14.50;43.54
21988;BME280;11158;53.404;-1.510;2023-02-12T08:51:35;102640.69;;;14.58;43.44
21988;BME280;11158;53.404;-1.510;2023-02-12T08:54:04;102634.06;;;14.97;43.08
21988;BME280;11158;53.404;-1.510;2023-02-12T08:56:32;102633.16;;;15.14;42.53
21988;BME280;11158;53.404;-1.510;2023-02-12T08:58:59;102636.47;;;15.08;42.31
21988;BME280;11158;53.404;-1.510;2023-02-12T09:01:27;102635.88;;;14.70;43.44
21988;BME280;11158;53.404;-1.510;2023-02-12T09:03:53;102646.09;;;14.84;43.42
21988;BME280;11158;53.404;-1.510;2023-02-12T09:06:21;102647.53;;;14.97;43.25
21988;BME280;11158;53.404;-1.510;2023-02-12T09:08:47;102642.22;;;15.13;42.80
21988;BME280;11158;53.404;-1.510;2023-02-12T09:11:15;102642.47;;;15.28;42.32
21988;BME280;11158;53.404;-1.510;2023-02-12T09:13:43;102646.63;;;15.48;42.34
21988;BME280;11158;53.404;-1.510;2023-02-12T09:16:09;102643.78;;;15.58;42.29
21988;BME280;11158;53.404;-1.510;2023-02-12T09:18:36;102638.94;;;15.70;42.00
21988;BME280;11158;53.404;-1.510;2023-02-12T09:21:08;102636.81;;;15.82;41.77
21988;BME280;11158;53.404;-1.510;2023-02-12T09:23:34;102641.09;;;16.25;41.22
21988;BME280;11158;53.404;-1.510;2023-02-12T09:26:03;102639.38;;;16.08;41.17
21988;BME280;11158;53.404;-1.510;2023-02-12T09:28:29;102635.41;;;15.69;41.65
21988;BME280;11158;53.404;-1.510;2023-02-12T09:30:55;102638.75;;;15.63;41.42
21988;BME280;11158;53.404;-1.510;2023-02-12T09:33:21;102636.63;;;15.75;41.70
21988;BME280;11158;53.404;-1.510;2023-02-12T09:35:47;102635.09;;;15.73;41.55
21988;BME280;11158;53.404;-1.510;2023-02-12T09:38:13;102635.25;;;15.71;41.54
21988;BME280;11158;53.404;-1.510;2023-02-12T09:46:23;102634.84;;;16.08;40.91
21988;BME280;11158;53.404;-1.510;2023-02-12T09:51:23;102627.94;;;16.06;40.18
21988;BME280;11158;53.404;-1.510;2023-02-12T09:54:00;102624.53;;;16.12;40.44
21988;BME280;11158;53.404;-1.510;2023-02-12T09:56:27;102623.56;;;16.29;39.60
21988;BME280;11158;53.404;-1.510;2023-02-12T09:58:56;102615.28;;;16.47;39.31
21988;BME280;11158;53.404;-1.510;2023-02-12T10:01:25;102616.63;;;16.51;39.43
21988;BME280;11158;53.404;-1.510;2023-02-12T10:03:52;102622.50;;;16.71;38.99
21988;BME280;11158;53.404;-1.510;2023-02-12T10:06:25;102619.66;;;16.81;38.75
21988;BME280;11158;53.404;-1.510;2023-02-12T10:22:46;102616.53;;;14.93;41.19
21988;BME280;11158;53.404;-1.510;2023-02-12T10:25:40;102627.91;;;15.55;39.27
21988;BME280;11158;53.404;-1.510;2023-02-12T10:28:16;102633.53;;;15.70;39.29
21988;BME280;11158;53.404;-1.510;2023-02-12T10:30:56;102628.63;;;15.65;39.81
21988;BME280;11158;53.404;-1.510;2023-02-12T10:33:40;102629.31;;;15.67;39.58
21988;BME280;11158;53.404;-1.510;2023-02-12T10:38:52;102626.47;;;15.26;40.38
21988;BME280;11158;53.404;-1.510;2023-02-12T10:41:19;102633.69;;;15.60;40.15
21988;BME280;11158;53.404;-1.510;2023-02-12T10:43:47;102636.16;;;15.96;39.76
21988;BME280;11158;53.404;-1.510;2023-02-12T10:46:16;102631.06;;;15.77;39.84
21988;BME280;11158;53.404;-1.510;2023-02-12T10:48:47;102641.91;;;15.16;40.15
21988;BME280;11158;53.404;-1.510;2023-02-12T10:51:58;102631.63;;;14.85;40.34
21988;BME280;11158;53.404;-1.510;2023-02-12T10:54:35;102635.63;;;15.42;39.56
21988;BME280;11158;53.404;-1.510;2023-02-12T10:57:14;102638.91;;;15.19;39.83
21988;BME280;11158;53.404;-1.510;2023-02-12T10:59:43;102640.63;;;14.32;41.10
21988;BME280;11158;53.404;-1.510;2023-02-12T11:04:47;102637.63;;;14.79;40.04
21988;BME280;11158;53.404;-1.510;2023-02-12T11:07:13;102637.75;;;14.52;40.05
21988;BME280;11158;53.404;-1.510;2023-02-12T11:09:42;102647.38;;;13.08;43.55
21988;BME280;11158;53.404;-1.510;2023-02-12T11:12:33;102643.44;;;14.13;41.74
21988;BME280;11158;53.404;-1.510;2023-02-12T11:17:35;102622.81;;;15.01;39.79
21988;BME280;11158;53.404;-1.510;2023-02-12T11:20:18;102637.00;;;14.59;40.27
21988;BME280;11158;53.404;-1.510;2023-02-12T11:22:55;102631.66;;;15.20;39.63
21988;BME280;11158;53.404;-1.510;2023-02-12T11:25:22;102628.47;;;15.24;39.05
21988;BME280;11158;53.404;-1.510;2023-02-12T11:28:18;102624.13;;;14.97;39.54
21988;BME280;11158;53.404;-1.510;2023-02-12T11:30:56;102621.41;;;15.23;38.83
21988;BME280;11158;53.404;-1.510;2023-02-12T11:33:29;102626.53;;;15.35;38.88
21988;BME280;11158;53.404;-1.510;2023-02-12T11:38:38;102618.00;;;15.64;38.18
21988;BME280;11158;53.404;-1.510;2023-02-12T11:44:24;102622.66;;;15.37;38.82
21988;BME280;11158;53.404;-1.510;2023-02-12T11:46:57;102619.38;;;15.25;38.79
21988;BME280;11158;53.404;-1.510;2023-02-12T11:49:32;102621.28;;;15.41;38.72
21988;BME280;11158;53.404;-1.510;2023-02-12T11:52:00;102613.09;;;15.51;38.38
21988;BME280;11158;53.404;-1.510;2023-02-12T11:54:29;102616.25;;;15.89;37.71
21988;BME280;11158;53.404;-1.510;2023-02-12T11:56:57;102622.19;;;15.07;39.23
21988;BME280;11158;53.404;-1.510;2023-02-12T12:01:59;102618.53;;;14.11;40.91
21988;BME280;11158;53.404;-1.510;2023-02-12T12:04:28;102636.25;;;14.13;41.22
21988;BME280;11158;53.404;-1.510;2023-02-12T12:07:04;102631.00;;;14.12;41.46
21988;BME280;11158;53.404;-1.510;2023-02-12T12:09:55;102615.47;;;14.59;39.97
21988;BME280;11158;53.404;-1.510;2023-02-12T12:15:32;102618.88;;;14.25;40.92
21988;BME280;11158;53.404;-1.510;2023-02-12T12:18:30;102617.78;;;14.36;40.65
21988;BME280;11158;53.404;-1.510;2023-02-12T12:21:41;102598.91;;;15.06;39.27
21988;BME280;11158;53.404;-1.510;2023-02-12T12:24:33;102607.09;;;14.27;41.01
21988;BME280;11158;53.404;-1.510;2023-02-12T12:27:18;102600.38;;;14.93;39.88
21988;BME280;11158;53.404;-1.510;2023-02-12T12:33:00;102600.63;;;15.50;38.50
21988;BME280;11158;53.404;-1.510;2023-02-12T12:53:10;102570.97;;;15.42;38.77
21988;BME280;11158;53.404;-1.510;2023-02-12T12:56:06;102565.91;;;15.47;38.51
21988;BME280;11158;53.404;-1.510;2023-02-12T13:01:43;102547.44;;;14.75;39.34
21988;BME280;11158;53.404;-1.510;2023-02-12T13:12:29;102562.72;;;15.01;39.23
21988;BME280;11158;53.404;-1.510;2023-02-12T13:17:49;102565.63;;;14.81;39.66
21988;BME280;11158;53.404;-1.510;2023-02-12T13:20:42;102564.81;;;13.93;41.38
21988;BME280;11158;53.404;-1.510;2023-02-12T13:23:18;102562.06;;;14.29;41.01
21988;BME280;11158;53.404;-1.510;2023-02-12T13:28:34;102559.22;;;14.30;40.78
21988;BME280;11158;53.404;-1.510;2023-02-12T13:31:05;102559.59;;;14.35;41.04
21988;BME280;11158;53.404;-1.510;2023-02-12T13:33:40;102554.56;;;14.40;40.24
21988;BME280;11158;53.404;-1.510;2023-02-12T13:36:09;102551.59;;;14.96;39.58
21988;BME280;11158;53.404;-1.510;2023-02-12T13:38:50;102545.31;;;14.61;40.40
21988;BME280;11158;53.404;-1.510;2023-02-12T13:41:19;102546.63;;;14.13;41.03
21988;BME280;11158;53.404;-1.510;2023-02-12T13:52:19;102539.84;;;14.71;40.26
21988;BME280;11158;53.404;-1.510;2023-02-12T13:55:07;102537.44;;;14.59;40.19
21988;BME280;11158;53.404;-1.510;2023-02-12T13:57:35;102529.56;;;15.00;39.43
21988;BME280;11158;53.404;-1.510;2023-02-12T14:00:01;102524.28;;;14.91;39.67
21988;BME280;11158;53.404;-1.510;2023-02-12T14:05:22;102503.47;;;15.01;39.80
21988;BME280;11158;53.404;-1.510;2023-02-12T14:07:55;102517.13;;;14.47;40.93
21988;BME280;11158;53.404;-1.510;2023-02-12T14:11:08;102514.56;;;14.19;41.18
21988;BME280;11158;53.404;-1.510;2023-02-12T14:14:02;102512.22;;;14.42;41.12
21988;BME280;11158;53.404;-1.510;2023-02-12T14:22:01;102507.63;;;14.35;40.89
21988;BME280;11158;53.404;-1.510;2023-02-12T14:27:17;102499.09;;;14.39;40.93
21988;BME280;11158;53.404;-1.510;2023-02-12T14:37:56;102504.78;;;14.97;39.52
21988;BME280;11158;53.404;-1.510;2023-02-12T14:45:46;102496.75;;;14.44;40.95
21988;BME280;11158;53.404;-1.510;2023-02-12T14:51:35;102490.56;;;14.18;41.19
21988;BME280;11158;53.404;-1.510;2023-02-12T14:54:04;102491.63;;;14.33;40.70
21988;BME280;11158;53.404;-1.510;2023-02-12T14:56:45;102488.44;;;14.56;39.93
21988;BME280;11158;53.404;-1.510;2023-02-12T14:59:19;102482.94;;;14.65;39.46
21988;BME280;11158;53.404;-1.510;2023-02-12T15:01:47;102483.59;;;14.59;40.57
21988;BME280;11158;53.404;-1.510;2023-02-12T15:04:26;102490.53;;;14.44;40.78
21988;BME280;11158;53.404;-1.510;2023-02-12T15:07:00;102482.00;;;14.49;41.05
21988;BME280;11158;53.404;-1.510;2023-02-12T15:09:54;102473.22;;;13.94;42.45
21988;BME280;11158;53.404;-1.510;2023-02-12T15:12:29;102463.69;;;14.26;41.56
21988;BME280;11158;53.404;-1.510;2023-02-12T15:16:00;102466.91;;;14.56;41.02
21988;BME280;11158;53.404;-1.510;2023-02-12T15:18:13;102460.63;;;14.81;40.15
21988;BME280;11158;53.404;-1.510;2023-02-12T15:20:55;102463.06;;;14.32;40.98
21988;BME280;11158;53.404;-1.510;2023-02-12T15:23:42;102457.97;;;14.29;41.32
21988;BME280;11158;53.404;-1.510;2023-02-12T15:26:20;102456.22;;;14.72;40.57
21988;BME280;11158;53.404;-1.510;2023-02-12T15:28:49;102450.88;;;14.80;39.93
21988;BME280;11158;53.404;-1.510;2023-02-12T15:31:29;102454.03;;;13.89;41.55
21988;BME280;11158;53.404;-1.510;2023-02-12T15:33:57;102463.88;;;12.99;43.76